Time;durP1;ratioP1;P1;durP2;ratioP2;P2;SDS_P1;SDS_P2;PMS_P1;PMS_P2;Temp;Humidity;BMP_temperature;BMP_pressure;BME280_temperature;BME280_humidity;BME280_pressure;Samples;Min_cycle;Max_cycle;Signal;HPM_P1;HPM_P2
2022/01/07 00:00:49;;;;;;;4.90;4.50;;;;;;;6.04;60.65;94601.19;5048624;28;20433;-76
2022/01/07 00:03:37;;;;;;;5.10;4.07;;;;;;;5.95;61.40;94597.81;5067041;28;20441;-76
2022/01/07 00:06:09;;;;;;;4.60;3.80;;;;;;;5.58;62.63;94599.16;5036553;28;20490;-76
2022/01/07 00:08:55;;;;;;;4.87;4.40;;;;;;;6.25;60.40;94603.22;5053317;28;20612;-77
2022/01/07 00:11:28;;;;;;;3.00;2.77;;;;;;;6.02;60.73;94598.75;5037421;28;20445;-77
2022/01/07 00:14:10;;;;;;;4.00;3.70;;;;;;;6.06;60.89;94610.44;5052800;28;20429;-76
2022/01/07 00:17:07;;;;;;;4.37;4.07;;;;;;;5.74;61.70;94606.09;5021928;28;20534;-76
2022/01/07 00:19:36;;;;;;;3.43;3.10;;;;;;;6.03;61.09;94605.59;5067594;28;20429;-76
2022/01/07 00:22:14;;;;;;;4.37;3.97;;;;;;;5.88;60.91;94604.63;5051444;28;21008;-75
2022/01/07 00:32:05;;;;;;;3.10;2.90;;;;;;;6.14;60.57;94611.38;4990779;28;20408;-76
2022/01/07 00:34:37;;;;;;;3.63;3.43;;;;;;;5.79;61.41;94605.63;4949796;29;20435;-75
2022/01/07 00:44:16;;;;;;;3.20;3.00;;;;;;;5.66;61.37;94604.31;4951986;28;20435;-76
2022/01/07 00:46:58;;;;;;;4.30;3.90;;;;;;;6.11;60.50;94609.94;5004963;28;20523;-76
2022/01/07 00:49:42;;;;;;;3.90;3.60;;;;;;;6.15;59.92;94618.22;4989012;28;20447;-76
2022/01/07 00:52:22;;;;;;;4.17;3.57;;;;;;;6.13;60.71;94631.38;5004681;28;20491;-76
2022/01/07 00:54:55;;;;;;;4.23;3.83;;;;;;;5.19;62.27;94623.16;4989279;28;20427;-75
2022/01/07 00:57:21;;;;;;;3.20;3.00;;;;;;;5.61;61.20;94632.56;5004933;28;20447;-75
2022/01/07 01:00:10;;;;;;;4.07;3.77;;;;;;;5.81;61.36;94640.00;5035302;28;21002;-76
2022/01/07 01:02:59;;;;;;;4.03;3.73;;;;;;;5.90;60.77;94643.38;5066078;28;20398;-76
2022/01/07 01:05:51;;;;;;;4.50;4.10;;;;;;;5.52;61.76;94649.13;5048651;28;20542;-76
2022/01/07 01:18:52;;;;;;;4.20;3.90;;;;;;;5.75;61.03;94638.06;5066366;28;20447;-77
2022/01/07 01:21:32;;;;;;;4.10;3.80;;;;;;;5.92;60.18;94639.69;5063613;28;20424;-75
2022/01/07 01:31:15;;;;;;;3.70;3.40;;;;;;;6.16;59.89;94644.00;5020131;28;20467;-76
2022/01/07 01:34:20;;;;;;;;;;;;;;;;;;;;;
2022/01/07 01:58:12;;;;;;;4.67;3.60;;;;;;;6.10;59.94;94636.09;4976394;28;20508;-76
2022/01/07 02:00:39;;;;;;;3.40;3.20;;;;;;;5.91;60.23;94635.44;5019419;28;20425;-75
2022/01/07 02:03:23;;;;;;;2.93;2.73;;;;;;;5.41;62.02;94633.91;5069416;28;20405;-76
2022/01/07 02:05:49;;;;;;;1.97;1.87;;;;;;;5.06;62.12;94648.78;5051418;28;20420;-77
2022/01/07 02:08:22;;;;;;;3.90;3.53;;;;;;;5.76;60.83;94637.91;5051052;28;20412;-75
2022/01/07 02:11:16;;;;;;;4.30;3.90;;;;;;;5.60;61.41;94635.34;5049434;28;20804;-76
2022/01/07 02:13:48;;;;;;;4.57;4.13;;;;;;;5.51;61.91;94651.88;5051038;28;20409;-76
2022/01/07 02:30:00;;;;;;;3.40;3.13;;;;;;;5.56;60.92;94666.00;4975641;28;20431;-78
2022/01/07 02:32:52;;;;;;;;;;;;;;;;;;;;;
2022/01/07 02:49:26;;;;;;;3.77;3.50;;;;;;;5.47;61.05;94672.16;5073092;28;20473;-78
2022/01/07 02:52:11;;;;;;;4.90;4.27;;;;;;;5.78;60.45;94676.69;5057259;28;20456;-76
2022/01/07 02:55:22;;;;;;;4.83;4.13;;;;;;;6.03;59.34;94674.88;5018044;28;20419;-76
2022/01/07 03:05:42;;;;;;;;;;;;;;;;;;;;;
2022/01/07 03:11:43;;;;;;;4.43;4.00;;;;;;;5.26;62.40;94662.25;4949177;29;20463;-76
2022/01/07 03:14:16;;;;;;;4.50;3.93;;;;;;;5.47;61.20;94672.16;4948708;29;20423;-76
2022/01/07 03:17:22;;;;;;;;;;;;;;;;;;;;;
2022/01/07 03:27:25;;;;;;;3.20;3.00;;;;;;;5.11;62.30;94677.63;5064143;28;20439;-77
2022/01/07 03:36:57;;;;;;;5.03;4.47;;;;;;;5.80;60.56;94688.53;4986563;28;20561;-76
2022/01/07 03:46:33;;;;;;;3.53;2.70;;;;;;;5.33;61.13;94696.97;4948054;28;20406;-76
2022/01/07 03:49:28;;;;;;;4.57;3.60;;;;;;;5.60;61.09;94698.44;4931672;29;20434;-75
2022/01/07 03:51:58;;;;;;;4.80;4.30;;;;;;;5.34;62.08;94700.38;4989380;28;20412;-76
2022/01/07 03:55:18;;;;;;;3.73;2.80;;;;;;;5.32;61.45;94699.72;4989571;28;20508;-75
2022/01/07 03:58:24;;;;;;;6.07;5.27;;;;;;;5.57;60.81;94696.16;4943158;29;20478;-76
2022/01/07 04:06:29;;;;;;;4.77;4.20;;;;;;;5.86;60.29;94698.28;5064140;28;20473;-74
2022/01/07 04:08:56;;;;;;;3.07;2.80;;;;;;;5.42;60.77;94701.16;5047945;28;20435;-77
2022/01/07 04:25:03;;;;;;;5.17;4.77;;;;;;;6.17;58.73;94714.97;4912244;29;20855;-75
2022/01/07 04:28:19;;;;;;;4.30;3.90;;;;;;;6.02;59.42;94718.25;4911534;29;20440;-76
2022/01/07 04:37:50;;;;;;;5.73;4.73;;;;;;;5.75;59.99;94723.72;4921805;28;20849;-76
2022/01/07 04:40:27;;;;;;;6.40;4.60;;;;;;;5.78;59.69;94723.41;5068084;28;20447;-76
2022/01/07 04:54:14;;;;;;;5.00;4.60;;;;;;;5.36;61.84;94737.34;5085214;28;20482;-75
2022/01/07 04:56:45;;;;;;;6.73;6.10;;;;;;;5.62;61.26;94738.03;5067774;28;20819;-75
2022/01/07 05:15:23;;;;;;;5.63;5.00;;;;;;;5.76;61.07;94757.31;5005120;28;20427;-75
2022/01/07 05:18:26;;;;;;;5.87;5.30;;;;;;;5.40;61.88;94749.81;4987743;28;20464;-75
2022/01/07 05:21:21;;;;;;;;;;;;;;;;;;;;;
2022/01/07 05:24:15;;;;;;;5.53;4.93;;;;;;;5.73;61.34;94749.88;5046734;28;20502;-77
2022/01/07 05:27:14;;;;;;;7.63;5.00;;;;;;;5.68;61.41;94757.34;4996548;28;20457;-77
2022/01/07 05:33:54;;;;;;;8.87;7.00;;;;;;;5.45;61.83;94762.34;5047439;28;20444;-76
2022/01/07 05:37:15;;;;;;;9.20;6.47;;;;;;;5.86;60.90;94758.00;5030744;28;20465;-77
2022/01/07 05:46:29;;;;;;;11.60;7.13;;;;;;;5.68;60.93;94767.72;4872193;29;20426;-76
2022/01/07 05:49:22;;;;;;;4.50;4.10;;;;;;;5.37;61.84;94754.53;4858397;29;20507;-75
2022/01/07 05:52:16;;;;;;;;;;;;;;;;;;;;;
2022/01/07 05:55:12;;;;;;;7.23;6.40;;;;;;;5.64;61.61;94777.59;4875020;29;20514;-75
2022/01/07 05:57:46;;;;;;;4.90;4.50;;;;;;;5.75;60.84;94773.06;4942637;28;20476;-77
2022/01/07 06:07:27;;;;;;;4.37;3.60;;;;;;;5.06;63.44;94773.25;4965933;28;20516;-76
2022/01/07 06:10:02;;;;;;;8.50;7.20;;;;;;;5.15;63.38;94777.50;4961141;28;20541;-76
2022/01/07 06:23:10;;;;;;;8.27;7.20;;;;;;;6.22;60.06;94782.84;4968626;29;20426;-76
2022/01/07 06:25:48;;;;;;;11.13;8.03;;;;;;;5.85;61.46;94776.34;5066436;28;20918;-76
2022/01/07 06:28:26;;;;;;;6.97;5.30;;;;;;;5.24;63.05;94778.34;5026344;28;20565;-76
2022/01/07 06:31:09;;;;;;;16.90;8.00;;;;;;;5.81;61.35;94793.22;5010031;28;20446;-77
2022/01/07 06:37:23;;;;;;;7.27;6.57;;;;;;;5.25;62.42;94793.75;5026431;28;20520;-76
2022/01/07 06:40:43;;;;;;;11.47;7.20;;;;;;;6.15;60.02;94800.06;5026525;28;20407;-76
2022/01/07 06:50:49;;;;;;;8.40;6.90;;;;;;;5.41;61.71;94805.16;4967548;29;20992;-76
2022/01/07 06:53:39;;;;;;;9.47;8.50;;;;;;;5.97;60.62;94818.41;4951200;29;20410;-77
2022/01/07 06:56:05;;;;;;;13.20;9.37;;;;;;;6.15;60.04;94815.66;5002087;28;20463;-77
2022/01/07 07:09:09;;;;;;;12.03;7.90;;;;;;;5.92;60.23;94820.63;5062310;28;20532;-77
2022/01/07 07:39:36;;;;;;;;;;;;;;;;;;;;;
2022/01/07 07:42:54;;;;;;;29.17;10.37;;;;;;;6.33;58.88;94802.50;5067340;28;20444;-77
2022/01/07 07:45:28;;;;;;;25.27;10.53;;;;;;;6.49;58.56;94801.66;5048117;28;20413;-77
2022/01/07 07:48:24;;;;;;;;;;;;;;;;;;;;;
2022/01/07 07:51:09;;;;;;;;;;;;;;;;;;;;;
2022/01/07 07:54:33;;;;;;;17.53;10.50;;;;;;;6.63;58.16;94813.97;5025221;28;20518;-76
2022/01/07 10:31:12;;;;;;;20.97;9.40;;;;;;;8.71;51.79;94713.34;5007263;28;20423;-77
2022/01/07 10:58:16;;;;;;;9.63;8.63;;;;;;;10.74;45.64;94686.03;5067918;28;20475;-78
2022/01/07 11:09:12;;;;;;;13.67;9.30;;;;;;;10.86;45.52;94682.84;5025991;28;20450;-77
2022/01/07 11:15:31;;;;;;;8.43;7.40;;;;;;;10.41;45.90;94674.56;4967026;28;20481;-77
2022/01/07 11:18:25;;;;;;;10.13;8.67;;;;;;;10.29;45.11;94667.22;5008873;28;20442;-78
2022/01/07 11:28:14;;;;;;;11.27;8.17;;;;;;;11.25;43.54;94665.66;4986368;28;20561;-77
2022/01/07 11:31:30;;;;;;;8.70;6.67;;;;;;;11.40;42.94;94662.88;4985014;28;20425;-78
2022/01/07 11:37:48;;;;;;;10.03;8.07;;;;;;;11.61;41.72;94664.50;4899795;29;20486;-77
2022/01/07 11:40:49;;;;;;;9.47;7.47;;;;;;;11.35;41.73;94654.81;4966434;29;20539;-77
2022/01/07 11:43:25;;;;;;;12.70;8.63;;;;;;;11.28;42.15;94652.97;4966215;29;20468;-77
2022/01/07 11:59:58;;;;;;;9.97;7.80;;;;;;;10.84;42.80;94649.00;4958545;29;20446;-78
2022/01/07 12:02:27;;;;;;;13.07;8.33;;;;;;;11.14;41.08;94644.28;4949275;28;20426;-77
2022/01/07 12:05:18;;;;;;;10.50;8.23;;;;;;;10.83;42.74;94636.09;5004233;28;20419;-78
2022/01/07 12:07:50;;;;;;;11.53;8.00;;;;;;;10.29;43.17;94640.25;5024653;28;20431;-77
2022/01/07 12:10:29;;;;;;;12.47;8.43;;;;;;;10.58;43.02;94641.84;5025152;28;20428;-77
2022/01/07 13:02:01;;;;;;;9.00;6.67;;;;;;;10.46;41.57;94625.09;4993150;28;20429;-77
2022/01/07 13:34:53;;;;;;;14.67;8.93;;;;;;;10.92;41.25;94619.22;4978603;28;20434;-77
2022/01/07 13:48:03;;;;;;;12.20;8.60;;;;;;;10.72;41.75;94621.78;4911351;29;20416;-77
2022/01/07 14:11:33;;;;;;;14.50;9.27;;;;;;;9.85;42.52;94608.22;4968294;29;20456;-77
2022/01/07 14:14:42;;;;;;;18.23;10.03;;;;;;;9.72;43.25;94602.88;5023459;28;20471;-77
2022/01/07 14:24:10;;;;;;;11.53;9.33;;;;;;;8.95;44.82;94596.56;5051434;28;20978;-77
2022/01/07 14:27:07;;;;;;;14.57;8.90;;;;;;;9.38;44.80;94600.00;5069158;28;20429;-77
2022/01/07 14:32:56;;;;;;;;;;;;;;;;;;;;;
2022/01/07 14:49:04;;;;;;;9.97;8.63;;;;;;;8.99;46.54;94590.00;4967379;28;20425;-76
2022/01/07 14:51:36;;;;;;;15.10;10.90;;;;;;;9.32;46.32;94586.91;4951269;29;20514;-77
2022/01/07 14:54:43;;;;;;;13.97;10.10;;;;;;;9.01;48.25;94585.41;4950001;29;20430;-77
2022/01/07 14:57:26;;;;;;;14.73;10.27;;;;;;;9.06;47.43;94590.88;5066483;28;20471;-77
2022/01/07 15:00:12;;;;;;;13.13;11.10;;;;;;;9.17;47.65;94582.53;5049385;28;20427;-77
2022/01/07 15:02:47;;;;;;;15.80;11.10;;;;;;;9.43;47.43;94583.78;5048845;28;20424;-77
2022/01/07 15:19:18;;;;;;;21.00;15.17;;;;;;;9.02;50.87;94591.44;5066450;28;20237;-76
2022/01/07 15:25:35;;;;;;;18.67;13.80;;;;;;;8.97;50.90;94589.38;5067896;28;20435;-77
2022/01/07 15:35:46;;;;;;;18.77;12.83;;;;;;;8.97;52.21;94581.53;5024968;28;20394;-77
2022/01/07 15:41:41;;;;;;;15.07;11.10;;;;;;;8.44;52.61;94584.38;4966368;29;20446;-77
2022/01/07 15:57:40;;;;;;;15.67;11.57;;;;;;;8.81;51.28;94581.78;4933207;29;20495;-77
2022/01/07 16:00:49;;;;;;;17.23;10.10;;;;;;;8.91;50.49;94579.69;4952969;29;20563;-77
2022/01/07 16:32:49;;;;;;;12.00;8.20;;;;;;;8.64;49.40;94604.69;5069202;28;20454;-77
2022/01/07 16:35:38;;;;;;;9.13;8.23;;;;;;;8.71;50.54;94606.38;5033732;28;20421;-77
2022/01/07 16:38:52;;;;;;;;;;;;;;;;;;;;;
2022/01/07 16:41:33;;;;;;;11.13;8.20;;;;;;;9.04;48.79;94605.09;5007416;28;20448;-77
2022/01/07 16:44:06;;;;;;;12.70;8.87;;;;;;;8.73;49.98;94604.38;5007524;28;20408;-76
2022/01/07 16:47:05;;;;;;;;;;;;;;;;;;;;;
2022/01/07 16:59:52;;;;;;;12.20;10.10;;;;;;;8.54;53.58;94604.97;4929155;29;20468;-76
2022/01/07 17:02:21;;;;;;;10.73;8.63;;;;;;;8.38;55.03;94608.53;4914144;29;20526;-77
2022/01/07 17:04:54;;;;;;;15.30;9.50;;;;;;;8.61;55.57;94608.44;5022331;28;20467;-75
2022/01/07 17:07:36;;;;;;;12.70;9.90;;;;;;;8.54;55.94;94597.16;4989038;28;20436;-75
2022/01/07 17:16:56;;;;;;;12.93;9.70;;;;;;;8.57;57.95;94600.19;4977613;28;20481;-75
2022/01/07 17:19:49;;;;;;;12.40;7.30;;;;;;;8.38;59.34;94604.16;5025259;28;20456;-75
2022/01/07 17:22:41;;;;;;;12.43;10.23;;;;;;;8.21;59.68;94606.16;5028801;28;20441;-74
2022/01/07 17:25:13;;;;;;;10.93;7.17;;;;;;;8.55;59.66;94602.16;5029472;28;20418;-75
2022/01/07 17:27:52;;;;;;;14.23;9.97;;;;;;;8.38;60.44;94606.75;5028258;28;20415;-75
2022/01/07 17:30:29;;;;;;;7.93;7.13;;;;;;;8.33;60.61;94611.69;5028939;28;20421;-75
2022/01/07 17:33:00;;;;;;;14.03;10.10;;;;;;;8.47;60.47;94610.09;5029583;28;20414;-75
2022/01/07 17:35:31;;;;;;;9.90;8.13;;;;;;;8.22;61.25;94612.16;5030069;28;20512;-75
2022/01/07 17:37:57;;;;;;;15.67;9.20;;;;;;;8.20;61.99;94614.13;5029265;28;20458;-75
2022/01/07 17:40:32;;;;;;;12.00;10.57;;;;;;;8.08;62.79;94607.75;5047678;28;20766;-74
2022/01/07 17:43:23;;;;;;;14.67;10.60;;;;;;;8.21;62.93;94610.53;5028563;28;20213;-74
2022/01/07 17:45:53;;;;;;;15.87;10.67;;;;;;;8.21;62.00;94610.53;5029461;28;20429;-75
2022/01/07 17:48:25;;;;;;;11.50;10.40;;;;;;;8.10;63.25;94600.56;5027867;28;20422;-74
2022/01/07 17:50:51;;;;;;;10.80;7.90;;;;;;;8.08;63.41;94605.13;5028880;28;20422;-76
2022/01/07 17:53:22;;;;;;;13.97;11.70;;;;;;;8.19;62.79;94604.69;5045794;28;20488;-75
2022/01/07 17:55:48;;;;;;;15.30;12.10;;;;;;;7.67;64.23;94608.97;5029001;28;20410;-74
2022/01/07 17:58:19;;;;;;;17.97;9.63;;;;;;;7.72;65.84;94601.44;5046740;28;20446;-75
2022/01/07 18:00:46;;;;;;;25.93;13.90;;;;;;;7.74;65.66;94609.06;5028822;28;20414;-75
2022/01/07 18:03:25;;;;;;;18.80;15.00;;;;;;;7.59;65.83;94611.66;5028928;28;20448;-75
2022/01/07 18:05:54;;;;;;;17.90;14.00;;;;;;;7.73;65.88;94620.47;5029360;28;20950;-74
2022/01/07 18:08:28;;;;;;;15.27;10.47;;;;;;;7.62;66.21;94609.47;5047711;28;20444;-75
2022/01/07 18:11:00;;;;;;;16.47;12.73;;;;;;;7.49;66.59;94617.09;5029128;28;20781;-74
2022/01/07 18:13:36;;;;;;;19.47;14.83;;;;;;;7.84;65.64;94612.22;5038761;28;20422;-75
2022/01/07 18:19:02;;;;;;;20.60;16.23;;;;;;;7.35;68.12;94610.06;5043160;28;20478;-75
2022/01/07 18:21:28;;;;;;;15.50;13.30;;;;;;;7.42;67.02;94605.78;5028651;28;20414;-75
2022/01/07 18:23:54;;;;;;;20.80;15.43;;;;;;;7.28;67.11;94611.75;5028775;28;20491;-75
2022/01/07 18:26:22;;;;;;;15.87;13.40;;;;;;;7.47;67.04;94611.25;5028851;28;20431;-75
2022/01/07 18:28:51;;;;;;;20.07;14.00;;;;;;;7.47;67.25;94619.06;5027832;28;20440;-75
2022/01/07 18:31:25;;;;;;;18.50;13.90;;;;;;;7.62;67.43;94613.88;5030353;28;20422;-74
2022/01/07 18:33:55;;;;;;;17.50;14.57;;;;;;;7.99;66.07;94618.25;5049647;28;20421;-76
2022/01/07 18:36:26;;;;;;;11.37;9.67;;;;;;;7.76;66.00;94618.34;5032070;28;20424;-75
2022/01/07 18:39:02;;;;;;;16.50;14.73;;;;;;;7.55;67.49;94611.19;5031729;28;20850;-76
2022/01/07 18:41:33;;;;;;;16.23;14.37;;;;;;;7.79;66.35;94624.97;5031999;28;20410;-76
2022/01/07 18:44:07;;;;;;;19.53;16.27;;;;;;;7.68;67.07;94620.19;5031391;28;20490;-75
2022/01/07 18:46:43;;;;;;;20.13;16.00;;;;;;;7.82;66.94;94627.22;5049011;28;20422;-75
2022/01/07 18:49:09;;;;;;;6.63;5.93;;;;;;;7.43;67.10;94618.59;5050026;28;20422;-75
2022/01/07 18:51:41;;;;;;;13.20;12.00;;;;;;;7.87;66.04;94622.28;5033013;28;20434;-75
2022/01/07 18:54:15;;;;;;;13.90;11.33;;;;;;;7.74;66.61;94619.47;5033328;28;20410;-75
2022/01/07 18:56:41;;;;;;;14.33;11.10;;;;;;;7.46;66.81;94627.88;5032105;28;20968;-75
2022/01/07 18:59:12;;;;;;;14.27;11.30;;;;;;;7.79;66.41;94622.38;5049612;28;20502;-75
2022/01/07 19:01:40;;;;;;;12.40;11.10;;;;;;;7.97;65.89;94625.44;5031408;28;20203;-76
2022/01/07 19:04:16;;;;;;;15.07;10.53;;;;;;;7.57;66.97;94624.84;5031414;28;20426;-75
2022/01/07 19:06:44;;;;;;;13.57;11.13;;;;;;;7.90;65.74;94618.53;5049548;28;20421;-75
2022/01/07 19:09:16;;;;;;;13.17;11.80;;;;;;;8.02;65.92;94622.28;5031028;28;20453;-76
2022/01/07 19:11:47;;;;;;;10.90;9.53;;;;;;;7.70;66.56;94634.66;5031254;28;20438;-75
2022/01/07 19:14:12;;;;;;;9.97;8.97;;;;;;;7.78;65.61;94615.56;5031827;28;20516;-75
2022/01/07 19:16:38;;;;;;;11.57;10.20;;;;;;;7.85;66.12;94613.84;5031211;28;20480;-76
2022/01/07 19:19:07;;;;;;;10.17;9.20;;;;;;;7.32;67.82;94611.22;5031505;28;20179;-76
2022/01/07 19:21:32;;;;;;;12.60;11.20;;;;;;;7.89;65.81;94609.91;5031943;28;20476;-76
2022/01/07 19:23:58;;;;;;;15.33;10.60;;;;;;;7.87;65.90;94614.47;5048509;28;20406;-76
2022/01/07 19:26:24;;;;;;;10.17;9.13;;;;;;;7.72;66.49;94611.03;5031016;28;20266;-75
2022/01/07 19:28:56;;;;;;;12.43;10.27;;;;;;;7.96;65.66;94602.16;5031513;28;20410;-76
2022/01/07 19:31:24;;;;;;;13.13;8.43;;;;;;;7.33;67.25;94601.63;5049544;28;20745;-76
2022/01/07 19:33:51;;;;;;;12.13;10.87;;;;;;;7.70;66.78;94599.97;5031695;28;20410;-76
2022/01/07 19:36:17;;;;;;;7.43;6.73;;;;;;;7.75;65.30;94601.06;5030869;28;20426;-76
2022/01/07 19:38:43;;;;;;;8.27;7.53;;;;;;;7.27;67.25;94600.53;5032187;28;21061;-75
2022/01/07 19:41:14;;;;;;;7.23;6.40;;;;;;;7.49;66.55;94600.66;5031622;28;20426;-75
2022/01/07 19:43:40;;;;;;;10.60;9.13;;;;;;;7.80;65.90;94603.16;5030786;28;20808;-75
2022/01/07 19:46:11;;;;;;;12.83;8.27;;;;;;;7.80;65.42;94603.16;5030528;28;20426;-75
2022/01/07 19:48:38;;;;;;;10.40;8.10;;;;;;;7.75;65.54;94597.66;5030443;28;20434;-76
2022/01/07 19:51:07;;;;;;;11.67;10.57;;;;;;;7.70;65.76;94597.38;5030250;28;20445;-75
2022/01/07 19:53:41;;;;;;;12.63;8.57;;;;;;;7.62;66.13;94599.06;5030395;28;20780;-76
2022/01/07 19:56:16;;;;;;;7.80;7.00;;;;;;;7.71;65.55;94591.19;5030862;28;20420;-75
2022/01/07 19:58:42;;;;;;;8.30;7.00;;;;;;;7.60;65.96;94585.41;5030696;28;20448;-75
2022/01/07 20:01:15;;;;;;;9.10;8.20;;;;;;;7.53;65.46;94587.13;5030251;28;20421;-75
2022/01/07 20:03:48;;;;;;;10.73;7.80;;;;;;;7.53;66.19;94589.75;5029952;28;20451;-75
2022/01/07 20:06:16;;;;;;;8.00;6.17;;;;;;;7.48;65.81;94588.66;5048629;28;20870;-76
2022/01/07 20:08:45;;;;;;;7.90;7.07;;;;;;;7.61;65.21;94594.06;5032674;28;20464;-75
2022/01/07 20:11:19;;;;;;;8.97;8.07;;;;;;;7.60;65.44;94582.81;5050776;28;20446;-76
2022/01/07 20:13:50;;;;;;;9.73;8.73;;;;;;;7.77;63.78;94585.28;5067860;28;20415;-75
2022/01/07 20:16:16;;;;;;;9.40;8.30;;;;;;;7.96;64.00;94582.13;5050311;28;20409;-75
2022/01/07 20:18:47;;;;;;;8.40;7.10;;;;;;;7.89;63.72;94586.47;5050457;28;20540;-75
2022/01/07 20:21:18;;;;;;;7.87;6.90;;;;;;;7.89;63.74;94585.63;5067649;28;20186;-75
2022/01/07 20:24:08;;;;;;;7.90;7.30;;;;;;;7.49;64.64;94588.44;5051141;28;20475;-75
2022/01/07 20:26:49;;;;;;;7.83;7.13;;;;;;;8.00;62.95;94593.81;5050497;28;20417;-76
2022/01/07 20:29:17;;;;;;;9.23;8.00;;;;;;;7.61;63.68;94579.22;5051379;28;20888;-76
2022/01/07 20:31:46;;;;;;;8.30;7.50;;;;;;;7.77;63.28;94593.09;5049517;28;20425;-75
2022/01/07 20:34:14;;;;;;;7.97;7.30;;;;;;;7.32;64.06;94592.19;5049670;28;20416;-76
2022/01/07 20:37:12;;;;;;;9.40;7.47;;;;;;;7.73;63.05;94591.81;5050511;28;20421;-77
2022/01/07 20:39:38;;;;;;;8.07;7.37;;;;;;;7.66;63.45;94601.31;5056677;28;20917;-76
2022/01/07 20:42:20;;;;;;;;;;;;;;;;;;;;;
2022/01/07 20:44:49;;;;;;;7.93;6.40;;;;;;;7.75;62.45;94595.06;5068341;28;20421;-76
2022/01/07 20:47:20;;;;;;;9.27;8.23;;;;;;;7.55;63.45;94599.94;5049698;28;20417;-75
2022/01/07 20:49:54;;;;;;;9.67;7.97;;;;;;;7.93;62.49;94582.50;5067356;28;20445;-76
2022/01/07 20:52:22;;;;;;;8.33;6.50;;;;;;;7.70;62.09;94586.97;5066439;28;20424;-75
2022/01/07 20:55:00;;;;;;;8.53;7.70;;;;;;;7.52;63.09;94588.09;5068162;28;20416;-76
2022/01/07 20:57:32;;;;;;;10.43;8.30;;;;;;;7.50;62.82;94587.47;5050671;28;20499;-75
2022/01/07 21:00:13;;;;;;;6.20;4.73;;;;;;;7.51;62.69;94578.69;5049792;28;20417;-75
2022/01/07 21:02:45;;;;;;;10.57;8.67;;;;;;;7.59;62.42;94585.63;5066969;28;20409;-75
2022/01/07 21:05:15;;;;;;;9.97;9.07;;;;;;;7.79;62.86;94580.69;5049511;28;20465;-74
2022/01/07 21:07:47;;;;;;;8.30;7.50;;;;;;;7.56;63.18;94586.75;5066436;28;20405;-74
2022/01/07 21:10:14;;;;;;;10.80;9.53;;;;;;;7.62;62.55;94593.06;5066584;28;20525;-75
2022/01/07 21:12:51;;;;;;;9.30;8.40;;;;;;;7.40;63.47;94579.91;5066854;28;20416;-74
2022/01/07 21:15:19;;;;;;;9.03;8.10;;;;;;;7.49;62.98;94590.25;5066917;28;21442;-74
2022/01/07 21:17:53;;;;;;;13.03;9.00;;;;;;;7.10;64.24;94581.63;5047516;28;20456;-75
2022/01/07 21:30:42;;;;;;;11.83;6.63;;;;;;;7.29;63.35;94584.75;4966166;29;20418;-75
2022/01/07 21:36:58;;;;;;;15.40;10.83;;;;;;;7.12;63.98;94584.06;4988100;28;20489;-76
2022/01/07 21:39:42;;;;;;;10.70;8.37;;;;;;;7.38;62.96;94581.88;4984768;28;20444;-76
2022/01/07 21:45:13;;;;;;;9.43;8.53;;;;;;;7.03;64.48;94581.50;4959227;28;20519;-76
2022/01/07 21:47:58;;;;;;;10.37;9.37;;;;;;;7.11;63.81;94583.22;4973314;28;20432;-77
2022/01/07 21:50:24;;;;;;;11.60;9.57;;;;;;;7.05;64.39;94576.13;4947482;29;20431;-76
2022/01/07 21:52:50;;;;;;;12.37;10.00;;;;;;;7.33;62.75;94584.19;4952262;28;20411;-75
2022/01/07 21:55:19;;;;;;;9.30;8.20;;;;;;;6.98;63.35;94577.78;5008253;28;20470;-75
2022/01/07 21:57:48;;;;;;;11.13;10.00;;;;;;;7.28;62.96;94577.91;5005095;28;21044;-75
2022/01/07 22:00:19;;;;;;;13.20;10.03;;;;;;;7.28;63.10;94576.09;5005233;28;20405;-75
2022/01/07 22:02:47;;;;;;;9.57;8.47;;;;;;;7.28;62.88;94577.91;5004940;28;20447;-75
2022/01/07 22:05:14;;;;;;;11.27;10.10;;;;;;;7.33;62.79;94570.38;4989220;28;20444;-75
2022/01/07 22:07:40;;;;;;;13.97;9.67;;;;;;;7.14;63.30;94569.88;5004734;28;20433;-75
2022/01/07 22:10:08;;;;;;;13.43;9.30;;;;;;;7.40;63.00;94569.50;4972649;28;21042;-75
2022/01/07 22:12:35;;;;;;;14.60;8.10;;;;;;;7.54;61.90;94573.13;4972406;28;20449;-75
2022/01/07 22:15:01;;;;;;;11.17;8.30;;;;;;;7.12;63.27;94563.25;4972930;28;20437;-75
2022/01/07 22:17:32;;;;;;;11.10;9.83;;;;;;;7.26;63.26;94574.66;4972737;28;20559;-76
2022/01/07 22:19:58;;;;;;;9.50;8.60;;;;;;;7.27;63.36;94571.09;4992186;28;20405;-75
2022/01/07 22:22:25;;;;;;;12.33;8.93;;;;;;;7.01;63.13;94577.47;5002212;28;20438;-75
2022/01/07 22:24:51;;;;;;;12.97;10.10;;;;;;;6.86;64.13;94576.59;5010972;28;20254;-76
2022/01/07 22:27:17;;;;;;;11.50;9.10;;;;;;;7.33;62.73;94578.19;5023281;28;20432;-75
2022/01/07 22:29:48;;;;;;;13.23;9.87;;;;;;;7.45;62.84;94575.97;5052797;28;20179;-75
2022/01/07 22:32:16;;;;;;;9.60;8.50;;;;;;;7.27;62.92;94576.31;5052923;28;20186;-74
2022/01/07 22:34:42;;;;;;;12.60;9.40;;;;;;;7.20;63.17;94576.19;5052575;28;20495;-76
2022/01/07 22:37:08;;;;;;;8.10;7.33;;;;;;;7.04;63.98;94569.31;5050969;28;20452;-75
2022/01/07 22:39:41;;;;;;;9.10;8.03;;;;;;;7.22;63.60;94563.78;5052166;28;20197;-76
2022/01/07 22:42:11;;;;;;;9.70;7.90;;;;;;;6.89;64.14;94558.06;5052244;28;20163;-74
2022/01/07 22:44:42;;;;;;;9.80;8.27;;;;;;;7.01;63.60;94548.84;5070700;28;20744;-76
2022/01/07 22:47:11;;;;;;;8.47;7.20;;;;;;;6.97;64.47;94552.78;5043830;28;20425;-75
2022/01/07 22:49:39;;;;;;;9.43;8.43;;;;;;;6.68;65.05;94549.09;5032868;28;20437;-76
2022/01/07 22:52:05;;;;;;;7.53;6.60;;;;;;;7.01;64.14;94551.44;5032582;28;20417;-76
2022/01/07 22:54:31;;;;;;;5.60;3.93;;;;;;;6.64;65.65;94560.81;5033031;28;20430;-76
2022/01/07 22:57:08;;;;;;;12.03;7.33;;;;;;;7.05;63.76;94560.50;5037965;28;20456;-75
2022/01/07 22:59:36;;;;;;;10.50;8.03;;;;;;;7.04;63.61;94567.53;5052100;28;20420;-75
2022/01/07 23:02:08;;;;;;;8.43;5.70;;;;;;;7.39;63.15;94560.06;5070243;28;20413;-75
2022/01/07 23:04:37;;;;;;;7.90;6.40;;;;;;;7.08;64.07;94562.78;5052526;28;20428;-74
2022/01/07 23:07:12;;;;;;;8.43;6.97;;;;;;;7.21;63.82;94557.00;5051997;28;20413;-75
2022/01/07 23:09:43;;;;;;;7.90;7.10;;;;;;;7.07;64.24;94560.34;5069865;28;20484;-75
2022/01/07 23:12:11;;;;;;;8.07;6.33;;;;;;;6.97;65.09;94561.38;5052444;28;20441;-75
2022/01/07 23:15:31;;;;;;;6.87;6.13;;;;;;;6.84;65.02;94556.75;5052769;28;20414;-76
2022/01/07 23:18:27;;;;;;;;;;;;;;;;;;;;;
2022/01/07 23:21:41;;;;;;;7.33;6.63;;;;;;;6.68;65.53;94546.47;5028308;28;20450;-76
2022/01/07 23:24:34;;;;;;;8.40;4.87;;;;;;;7.08;64.16;94549.78;5028498;28;20426;-76
2022/01/07 23:27:31;;;;;;;9.03;7.80;;;;;;;6.92;64.43;94545.47;4988662;28;20413;-76
2022/01/07 23:30:26;;;;;;;7.90;7.20;;;;;;;6.37;66.65;94544.69;4985756;28;20452;-75
2022/01/07 23:39:43;;;;;;;7.27;6.30;;;;;;;6.60;66.25;94523.13;4915518;28;20481;-75
2022/01/07 23:42:23;;;;;;;7.77;6.83;;;;;;;6.99;64.71;94532.59;4971498;28;20413;-75
